createdAt,value
2023-01-27T00:00:56.345Z,99947.63
2023-01-27T00:03:24.606Z,99949.09
2023-01-27T00:05:52.460Z,99960.00
2023-01-27T00:08:19.878Z,99954.47
2023-01-27T00:11:07.476Z,99949.13
2023-01-27T00:13:34.929Z,99951.28
2023-01-27T00:16:02.679Z,99949.53
2023-01-27T00:18:30.098Z,99949.50
2023-01-27T00:21:15.875Z,99950.03
2023-01-27T00:24:02.397Z,99943.97
2023-01-27T00:26:29.833Z,99937.97
2023-01-27T00:28:57.675Z,99944.12
2023-01-27T00:31:43.857Z,99941.69
2023-01-27T00:34:11.727Z,99947.56
2023-01-27T00:36:41.184Z,99944.34
2023-01-27T00:39:10.055Z,99949.81
2023-01-27T00:41:38.575Z,99942.94
2023-01-27T00:44:06.729Z,99946.06
2023-01-27T00:46:34.763Z,99945.69
2023-01-27T00:49:02.569Z,99942.81
2023-01-27T00:51:31.179Z,99938.25
2023-01-27T00:53:59.329Z,99942.66
2023-01-27T00:56:28.226Z,99939.69
2023-01-27T00:58:55.924Z,99938.59
2023-01-27T01:01:23.865Z,99937.19
2023-01-27T01:03:52.980Z,99931.56
2023-01-27T01:06:23.526Z,99923.44
2023-01-27T01:08:53.456Z,99933.13
2023-01-27T01:11:21.761Z,99925.03
2023-01-27T01:13:49.281Z,99937.72
2023-01-27T01:16:22.944Z,99932.66
2023-01-27T01:18:50.772Z,99931.53
2023-01-27T01:21:18.157Z,99927.97
2023-01-27T01:23:46.735Z,99930.19
2023-01-27T01:26:15.920Z,99936.16
2023-01-27T01:28:44.608Z,99934.78
2023-01-27T01:31:15.765Z,99920.94
2023-01-27T01:33:43.686Z,99932.91
2023-01-27T01:36:13.346Z,99914.00
2023-01-27T01:38:40.851Z,99908.63
2023-01-27T01:41:12.052Z,99912.91
2023-01-27T01:43:41.711Z,99915.72
2023-01-27T01:46:10.784Z,99920.50
2023-01-27T01:48:59.346Z,99917.63
2023-01-27T01:51:32.900Z,99911.81
2023-01-27T01:54:15.486Z,99912.91
2023-01-27T01:56:51.085Z,99921.62
2023-01-27T01:59:32.746Z,99914.56
2023-01-27T02:02:04.200Z,99911.41
2023-01-27T02:04:38.885Z,99918.09
2023-01-27T02:07:30.867Z,99909.84
2023-01-27T02:09:58.681Z,99905.81
2023-01-27T02:12:26.283Z,99903.38
2023-01-27T02:14:54.090Z,99907.19
2023-01-27T02:17:22.242Z,99898.84
2023-01-27T02:19:59.264Z,99893.41
2023-01-27T02:22:57.465Z,99891.12
2023-01-27T02:25:37.032Z,99896.13
2023-01-27T02:28:07.491Z,99883.72
2023-01-27T02:30:35.285Z,99875.09
2023-01-27T02:33:12.714Z,99877.28
2023-01-27T02:36:01.830Z,99871.09
2023-01-27T02:38:34.499Z,99872.97
2023-01-27T02:41:27.079Z,99861.22
2023-01-27T02:43:54.802Z,99857.28
2023-01-27T02:46:23.085Z,99867.84
2023-01-27T02:48:50.570Z,99861.19
2023-01-27T02:51:18.619Z,99859.97
2023-01-27T02:53:47.283Z,99852.47
2023-01-27T02:56:14.686Z,99850.69
2023-01-27T02:58:42.594Z,99855.87
2023-01-27T03:01:11.447Z,99853.34
2023-01-27T03:03:44.119Z,99853.47
2023-01-27T03:06:12.003Z,99844.50
2023-01-27T03:08:39.495Z,99848.72
2023-01-27T03:11:07.959Z,99850.59
2023-01-27T03:13:37.891Z,99858.09
2023-01-27T03:16:24.840Z,99839.41
2023-01-27T03:18:56.596Z,99840.91
2023-01-27T03:21:24.450Z,99839.91
2023-01-27T03:23:52.269Z,99833.00
2023-01-27T03:26:21.566Z,99841.72
2023-01-27T03:29:09.419Z,99838.97
2023-01-27T03:31:38.489Z,99831.13
2023-01-27T03:34:06.325Z,99825.56
2023-01-27T03:36:52.904Z,99825.28
2023-01-27T03:39:42.254Z,99824.31
2023-01-27T03:42:28.250Z,99828.31
2023-01-27T03:45:14.977Z,99822.94
2023-01-27T03:47:42.540Z,99822.81
2023-01-27T03:50:19.284Z,99824.34
2023-01-27T03:53:03.204Z,99822.62
2023-01-27T03:55:32.187Z,99811.88
2023-01-27T03:58:14.776Z,99811.63
2023-01-27T04:00:42.765Z,99803.28
2023-01-27T04:03:29.902Z,99809.81
2023-01-27T04:06:16.104Z,99808.91
2023-01-27T04:08:43.851Z,99798.88
2023-01-27T04:11:31.752Z,99797.78
2023-01-27T04:14:06.419Z,99798.41
2023-01-27T04:16:34.509Z,99798.44
2023-01-27T04:19:03.770Z,99801.69
2023-01-27T04:21:31.179Z,99803.75
2023-01-27T04:23:59.138Z,99793.53
2023-01-27T04:26:33.088Z,99792.19
2023-01-27T04:29:04.422Z,99801.78
2023-01-27T04:31:32.724Z,99804.38
2023-01-27T04:34:00.441Z,99792.66
2023-01-27T04:36:27.834Z,99800.97
2023-01-27T04:38:55.521Z,99796.34
2023-01-27T04:41:22.910Z,99806.78
2023-01-27T04:43:50.380Z,99804.59
2023-01-27T04:46:18.331Z,99802.25
2023-01-27T04:48:45.891Z,99803.66
2023-01-27T04:51:13.291Z,99813.66
2023-01-27T04:53:40.974Z,99823.53
2023-01-27T04:56:20.985Z,99809.59
2023-01-27T04:58:49.116Z,99812.53
2023-01-27T05:01:16.688Z,99820.53
2023-01-27T05:03:44.085Z,99817.84
2023-01-27T05:06:12.461Z,99823.19
2023-01-27T05:08:39.873Z,99828.06
2023-01-27T05:11:07.487Z,99831.34
2023-01-27T05:13:35.343Z,99810.63
2023-01-27T05:16:14.274Z,99825.41
2023-01-27T05:18:43.109Z,99825.78
2023-01-27T05:21:14.193Z,99817.78
2023-01-27T05:23:41.869Z,99818.50
2023-01-27T05:26:20.823Z,99818.00
2023-01-27T05:28:49.767Z,99820.91
2023-01-27T05:31:22.478Z,99819.13
2023-01-27T05:33:52.368Z,99819.47
2023-01-27T05:36:21.855Z,99821.03
2023-01-27T05:38:49.523Z,99818.41
2023-01-27T05:41:18.546Z,99815.31
2023-01-27T05:43:47.455Z,99812.25
2023-01-27T05:46:16.953Z,99818.56
2023-01-27T05:48:47.667Z,99815.97
2023-01-27T05:51:16.540Z,99810.66
2023-01-27T05:53:44.537Z,99812.50
2023-01-27T05:56:19.120Z,99812.94
2023-01-27T05:58:46.586Z,99816.03
2023-01-27T06:01:21.343Z,99827.72
2023-01-27T06:03:49.572Z,99827.88
2023-01-27T06:06:19.203Z,99840.69
2023-01-27T06:08:47.415Z,99842.44
2023-01-27T06:11:15.877Z,99846.75
2023-01-27T06:13:43.533Z,99839.34
2023-01-27T06:16:13.133Z,99834.28
2023-01-27T06:18:41.233Z,99826.22
2023-01-27T06:21:10.208Z,99828.50
2023-01-27T06:23:38.120Z,99830.81
2023-01-27T06:26:10.584Z,99818.66
2023-01-27T06:28:38.838Z,99828.13
2023-01-27T06:31:16.294Z,99822.88
2023-01-27T06:33:43.937Z,99832.56
2023-01-27T06:36:14.137Z,99828.69
2023-01-27T06:38:42.206Z,99836.44
2023-01-27T06:41:09.965Z,99833.13
2023-01-27T06:43:37.938Z,99833.91
2023-01-27T06:46:06.318Z,99837.66
2023-01-27T06:48:33.980Z,99836.06
2023-01-27T06:51:01.764Z,99827.59
2023-01-27T06:53:29.484Z,99835.13
2023-01-27T06:55:58.858Z,99839.25
2023-01-27T06:58:26.959Z,99833.69
2023-01-27T07:00:55.174Z,99823.41
2023-01-27T07:03:22.838Z,99824.56
2023-01-27T07:05:50.711Z,99836.69
2023-01-27T07:08:18.171Z,99832.78
2023-01-27T07:10:45.839Z,99822.03
2023-01-27T07:13:14.496Z,99821.41
2023-01-27T07:15:42.331Z,99831.00
2023-01-27T07:18:11.341Z,99831.59
2023-01-27T07:20:41.041Z,99829.16
2023-01-27T07:23:09.596Z,99833.37
2023-01-27T07:25:37.539Z,99834.88
2023-01-27T07:28:05.762Z,99833.06
2023-01-27T07:30:34.230Z,99834.50
2023-01-27T07:33:09.749Z,99839.16
2023-01-27T07:35:38.674Z,99844.62
2023-01-27T07:38:06.923Z,99838.53
2023-01-27T07:40:35.711Z,99841.63
2023-01-27T07:43:03.960Z,99840.03
2023-01-27T07:45:34.189Z,99835.56
2023-01-27T07:48:02.818Z,99834.50
2023-01-27T07:50:30.679Z,99823.31
2023-01-27T07:53:02.131Z,99827.44
2023-01-27T07:55:30.563Z,99825.41
2023-01-27T07:57:58.525Z,99818.50
2023-01-27T08:00:28.193Z,99827.69
2023-01-27T08:02:56.923Z,99825.47
2023-01-27T08:05:25.243Z,99821.06
2023-01-27T08:07:58.613Z,99832.72
2023-01-27T08:10:26.902Z,99833.09
2023-01-27T08:12:54.672Z,99831.31
2023-01-27T08:15:22.803Z,99833.91
2023-01-27T08:17:59.994Z,99834.19
2023-01-27T08:20:27.881Z,99824.38
2023-01-27T08:22:55.955Z,99831.66
2023-01-27T08:25:23.964Z,99835.94
2023-01-27T08:27:52.416Z,99842.69
2023-01-27T08:30:20.719Z,99843.03
2023-01-27T08:32:48.618Z,99842.50
2023-01-27T08:35:16.344Z,99841.81
2023-01-27T08:37:44.285Z,99841.63
2023-01-27T08:40:12.605Z,99840.16
2023-01-27T08:42:40.523Z,99836.47
2023-01-27T08:45:11.640Z,99842.16
2023-01-27T08:47:39.112Z,99834.06
2023-01-27T08:50:08.251Z,99840.56
2023-01-27T08:52:36.009Z,99846.25
2023-01-27T08:55:03.654Z,99846.09
2023-01-27T08:57:32.717Z,99846.94
2023-01-27T09:00:00.935Z,99850.63
2023-01-27T09:02:28.374Z,99846.06
2023-01-27T09:04:55.842Z,99846.47
2023-01-27T09:07:23.592Z,99848.53
2023-01-27T09:09:55.984Z,99856.78
2023-01-27T09:12:28.972Z,99855.41
2023-01-27T09:14:58.270Z,99849.13
2023-01-27T09:17:25.800Z,99858.47
2023-01-27T09:19:53.525Z,99854.75
2023-01-27T09:22:20.957Z,99858.81
2023-01-27T09:24:48.370Z,99863.00
2023-01-27T09:27:18.101Z,99870.69
2023-01-27T09:29:46.626Z,99872.41
2023-01-27T09:32:14.029Z,99857.59
2023-01-27T09:34:43.995Z,99862.25
2023-01-27T09:37:13.241Z,99870.63
2023-01-27T09:39:46.205Z,99864.63
2023-01-27T09:42:25.658Z,99874.72
2023-01-27T09:45:15.305Z,99869.25
2023-01-27T09:47:49.312Z,99867.72
2023-01-27T09:50:25.770Z,99869.69
2023-01-27T09:53:14.217Z,99875.19
2023-01-27T09:55:49.977Z,99867.94
2023-01-27T09:58:52.922Z,99865.28
2023-01-27T10:01:46.306Z,99863.66
2023-01-27T10:04:22.974Z,99865.91
2023-01-27T10:07:27.988Z,99857.41
2023-01-27T10:10:14.030Z,99861.06
2023-01-27T10:13:00.125Z,99869.13
2023-01-27T10:15:56.727Z,99867.97
2023-01-27T10:18:59.504Z,99863.06
2023-01-27T10:21:49.524Z,99866.06
2023-01-27T10:24:51.104Z,99854.13
2023-01-27T10:27:22.390Z,99858.84
2023-01-27T10:30:05.331Z,99851.22
2023-01-27T10:32:35.846Z,99864.44
2023-01-27T10:35:06.132Z,99860.66
2023-01-27T10:38:01.601Z,99860.53
2023-01-27T10:41:02.313Z,99861.28
2023-01-27T10:43:32.751Z,99869.06
2023-01-27T10:46:15.444Z,99870.47
2023-01-27T10:49:06.035Z,99853.84
2023-01-27T10:51:37.612Z,99860.38
2023-01-27T10:54:31.787Z,99854.06
2023-01-27T10:57:07.240Z,99852.59
2023-01-27T10:59:44.258Z,99851.72
2023-01-27T11:02:24.390Z,99855.13
2023-01-27T11:04:59.398Z,99849.28
2023-01-27T11:07:27.212Z,99852.97
2023-01-27T11:09:57.862Z,99846.13
2023-01-27T11:12:41.211Z,99841.91
2023-01-27T11:15:31.527Z,99839.53
2023-01-27T11:18:31.199Z,99835.31
2023-01-27T11:21:07.509Z,99834.03
2023-01-27T11:23:40.403Z,99825.72
2023-01-27T11:26:41.639Z,99832.94
2023-01-27T11:29:32.648Z,99830.03
2023-01-27T11:32:19.388Z,99826.06
2023-01-27T11:35:04.059Z,99836.91
2023-01-27T11:37:35.540Z,99830.44
2023-01-27T11:40:03.867Z,99820.69
2023-01-27T11:42:34.587Z,99823.16
2023-01-27T11:45:02.532Z,99819.03
2023-01-27T11:47:34.917Z,99807.50
2023-01-27T11:50:04.545Z,99806.62
2023-01-27T11:52:32.654Z,99802.16
2023-01-27T11:55:07.058Z,99801.38
2023-01-27T11:57:36.565Z,99798.72
2023-01-27T12:00:08.231Z,99796.41
2023-01-27T12:02:43.870Z,99793.63
2023-01-27T12:05:36.498Z,99783.91
2023-01-27T12:08:05.215Z,99787.63
2023-01-27T12:10:36.466Z,99775.66
2023-01-27T12:13:18.850Z,99782.88
2023-01-27T12:16:00.195Z,99781.03
2023-01-27T12:18:33.223Z,99773.63
2023-01-27T12:21:03.516Z,99770.41
2023-01-27T12:23:40.441Z,99772.75
2023-01-27T12:26:10.417Z,99766.84
2023-01-27T12:28:51.196Z,99764.34
2023-01-27T12:31:29.430Z,99760.00
2023-01-27T12:34:12.965Z,99755.09
2023-01-27T12:36:42.641Z,99752.31
2023-01-27T12:39:28.704Z,99751.88
2023-01-27T12:41:56.159Z,99750.75
2023-01-27T12:44:23.953Z,99746.56
2023-01-27T12:47:01.898Z,99752.13
2023-01-27T12:49:35.514Z,99752.38
2023-01-27T12:52:05.155Z,99748.41
2023-01-27T12:54:33.153Z,99742.22
2023-01-27T12:57:04.082Z,99746.25
2023-01-27T12:59:31.649Z,99744.63
2023-01-27T13:02:22.654Z,99752.13
2023-01-27T13:04:57.094Z,99748.16
2023-01-27T13:07:30.697Z,99747.50
2023-01-27T13:10:03.854Z,99745.91
2023-01-27T13:12:38.078Z,99758.28
2023-01-27T13:15:14.649Z,99746.12
2023-01-27T13:17:53.406Z,99754.50
2023-01-27T13:20:24.711Z,99746.56
2023-01-27T13:23:03.958Z,99757.22
2023-01-27T13:25:50.481Z,99762.28
2023-01-27T13:28:23.315Z,99768.91
2023-01-27T13:30:54.206Z,99771.97
2023-01-27T13:33:45.594Z,99783.00
2023-01-27T13:36:25.399Z,99783.59
2023-01-27T13:39:01.548Z,99776.59
2023-01-27T13:41:39.727Z,99777.63
2023-01-27T13:44:16.103Z,99773.59
2023-01-27T13:46:44.862Z,99781.88
2023-01-27T13:49:37.035Z,99779.25
2023-01-27T13:52:07.955Z,99785.47
2023-01-27T13:54:35.698Z,99781.38
2023-01-27T13:57:06.039Z,99785.47
2023-01-27T13:59:45.500Z,99787.94
2023-01-27T14:02:34.899Z,99788.16
2023-01-27T14:05:33.330Z,99776.62
2023-01-27T14:08:01.190Z,99784.78
2023-01-27T14:10:35.679Z,99771.06
2023-01-27T14:13:21.541Z,99782.50
2023-01-27T14:16:02.479Z,99778.63
2023-01-27T14:18:35.610Z,99777.75
2023-01-27T14:21:34.845Z,99764.16
2023-01-27T14:24:27.697Z,99776.44
2023-01-27T14:27:16.191Z,99773.22
2023-01-27T14:30:08.392Z,99781.22
2023-01-27T14:32:45.401Z,99775.53
2023-01-27T14:36:01.105Z,99775.34
2023-01-27T14:38:34.291Z,99783.00
2023-01-27T14:41:16.936Z,99778.94
2023-01-27T14:43:50.330Z,99777.12
2023-01-27T14:46:21.896Z,99781.72
2023-01-27T14:49:12.148Z,99772.09
2023-01-27T14:51:47.654Z,99781.56
2023-01-27T14:54:30.270Z,99769.28
2023-01-27T14:57:05.716Z,99776.62
2023-01-27T14:59:53.573Z,99781.59
2023-01-27T15:02:59.439Z,99779.44
2023-01-27T15:05:36.970Z,99777.22
2023-01-27T15:08:16.459Z,99772.66
2023-01-27T15:10:54.284Z,99772.22
2023-01-27T15:13:40.784Z,99765.47
2023-01-27T15:16:42.166Z,99770.91
2023-01-27T15:19:37.901Z,99781.06
2023-01-27T15:22:17.819Z,99767.25
2023-01-27T15:24:59.315Z,99771.25
2023-01-27T15:27:27.570Z,99774.97
2023-01-27T15:29:55.182Z,99782.59
2023-01-27T15:32:27.610Z,99778.69
2023-01-27T15:35:24.682Z,99772.87
2023-01-27T15:38:08.737Z,99786.72
2023-01-27T15:40:56.320Z,99788.16
2023-01-27T15:43:25.391Z,99803.78
2023-01-27T15:45:56.702Z,99797.09
2023-01-27T15:48:30.109Z,99809.28
2023-01-27T15:51:04.727Z,99794.41
2023-01-27T15:53:34.111Z,99803.16
2023-01-27T15:56:02.868Z,99793.84
2023-01-27T15:58:36.162Z,99793.28
2023-01-27T16:01:07.295Z,99795.56
2023-01-27T16:03:48.119Z,99789.75
2023-01-27T16:06:24.148Z,99809.19
2023-01-27T16:08:56.689Z,99798.50
2023-01-27T16:11:41.131Z,99811.59
2023-01-27T16:14:11.885Z,99812.44
2023-01-27T16:16:40.780Z,99821.62
2023-01-27T16:19:11.343Z,99814.00
2023-01-27T16:21:52.968Z,99817.09
2023-01-27T16:24:28.599Z,99814.16
2023-01-27T16:27:14.767Z,99816.38
2023-01-27T16:29:47.782Z,99820.72
2023-01-27T16:32:20.469Z,99816.69
2023-01-27T16:34:52.007Z,99824.16
2023-01-27T16:37:24.493Z,99831.50
2023-01-27T16:40:08.439Z,99827.84
2023-01-27T16:42:57.599Z,99826.37
2023-01-27T16:45:42.197Z,99834.97
2023-01-27T16:48:38.566Z,99836.28
2023-01-27T16:51:08.014Z,99837.75
2023-01-27T16:53:35.982Z,99840.56
2023-01-27T16:56:08.029Z,99843.31
2023-01-27T16:58:46.491Z,99857.25
2023-01-27T17:01:22.146Z,99852.50
2023-01-27T17:03:52.747Z,99859.28
2023-01-27T17:06:29.729Z,99853.19
2023-01-27T17:08:57.483Z,99864.03
2023-01-27T17:11:32.906Z,99856.31
2023-01-27T17:14:02.837Z,99861.13
2023-01-27T17:16:35.400Z,99851.88
2023-01-27T17:19:33.035Z,99856.53
2023-01-27T17:22:07.526Z,99866.47
2023-01-27T17:24:38.857Z,99860.66
2023-01-27T17:27:12.954Z,99854.97
2023-01-27T17:29:43.113Z,99869.97
2023-01-27T17:32:21.493Z,99864.84
2023-01-27T17:34:51.124Z,99869.53
2023-01-27T17:37:21.133Z,99861.56
2023-01-27T17:39:54.843Z,99861.81
2023-01-27T17:42:25.284Z,99858.41
2023-01-27T17:44:54.372Z,99867.09
2023-01-27T17:47:22.706Z,99857.47
2023-01-27T17:49:51.699Z,99853.16
2023-01-27T17:52:24.896Z,99853.50
2023-01-27T17:54:53.386Z,99863.06
2023-01-27T17:57:32.817Z,99870.84
2023-01-27T18:00:21.896Z,99873.19
2023-01-27T18:02:59.158Z,99883.00
2023-01-27T18:05:29.671Z,99874.34
2023-01-27T18:07:57.987Z,99875.28
2023-01-27T18:10:40.922Z,99873.81
2023-01-27T18:13:18.247Z,99880.78
2023-01-27T18:15:49.912Z,99872.91
2023-01-27T18:18:28.269Z,99892.88
2023-01-27T18:21:04.079Z,99885.75
2023-01-27T18:23:35.583Z,99884.28
2023-01-27T18:26:13.409Z,99889.31
2023-01-27T18:28:41.675Z,99888.09
2023-01-27T18:31:18.025Z,99880.78
2023-01-27T18:33:57.509Z,99891.84
2023-01-27T18:36:35.147Z,99889.84
2023-01-27T18:39:24.547Z,99897.44
2023-01-27T18:41:52.281Z,99897.78
2023-01-27T18:44:27.324Z,99893.91
2023-01-27T18:46:56.756Z,99887.31
2023-01-27T18:49:25.546Z,99894.97
2023-01-27T18:51:53.755Z,99897.06
2023-01-27T18:54:21.851Z,99888.63
2023-01-27T18:56:50.440Z,99890.59
2023-01-27T18:59:21.458Z,99902.84
2023-01-27T19:01:49.745Z,99894.41
2023-01-27T19:04:18.609Z,99900.09
2023-01-27T19:06:48.028Z,99896.91
2023-01-27T19:09:16.385Z,99896.13
2023-01-27T19:11:45.356Z,99901.81
2023-01-27T19:14:14.104Z,99909.97
2023-01-27T19:16:47.257Z,99898.81
2023-01-27T19:19:17.145Z,99893.22
2023-01-27T19:21:45.667Z,99897.09
2023-01-27T19:24:14.245Z,99901.72
2023-01-27T19:26:44.305Z,99894.34
2023-01-27T19:29:12.681Z,99888.88
2023-01-27T19:31:41.499Z,99896.78
2023-01-27T19:34:11.645Z,99883.31
2023-01-27T19:36:45.898Z,99900.63
2023-01-27T19:39:18.479Z,99900.03
2023-01-27T19:41:46.997Z,99889.63
2023-01-27T19:44:16.565Z,99906.84
2023-01-27T19:46:45.059Z,99912.06
2023-01-27T19:49:18.025Z,99899.47
2023-01-27T19:51:47.666Z,99906.69
2023-01-27T19:54:17.453Z,99905.06
2023-01-27T19:56:47.193Z,99912.53
2023-01-27T19:59:16.301Z,99921.69
2023-01-27T20:01:45.982Z,99914.38
2023-01-27T20:04:15.127Z,99923.38
2023-01-27T20:06:42.955Z,99928.41
2023-01-27T20:09:12.085Z,99931.59
2023-01-27T20:11:43.222Z,99918.53
2023-01-27T20:14:16.975Z,99936.12
2023-01-27T20:16:47.327Z,99937.16
2023-01-27T20:19:16.914Z,99938.88
2023-01-27T20:21:47.194Z,99942.16
2023-01-27T20:24:17.525Z,99953.19
2023-01-27T20:26:46.572Z,99947.97
2023-01-27T20:29:16.572Z,99949.00
2023-01-27T20:31:45.245Z,99939.41
2023-01-27T20:34:14.277Z,99941.81
2023-01-27T20:36:43.205Z,99939.75
2023-01-27T20:39:13.679Z,99936.75
2023-01-27T20:41:43.780Z,99939.97
2023-01-27T20:44:12.941Z,99945.09
2023-01-27T20:46:42.398Z,99950.13
2023-01-27T20:49:12.248Z,99936.00
2023-01-27T20:51:40.869Z,99937.41
2023-01-27T20:54:09.090Z,99940.28
2023-01-27T20:56:37.365Z,99943.66
2023-01-27T20:59:07.095Z,99941.63
2023-01-27T21:01:36.097Z,99946.84
2023-01-27T21:04:05.147Z,99942.34
2023-01-27T21:06:33.314Z,99944.44
2023-01-27T21:09:03.219Z,99951.84
2023-01-27T21:11:32.265Z,99954.34
2023-01-27T21:14:00.136Z,99942.19
2023-01-27T21:16:28.368Z,99952.19
2023-01-27T21:18:56.575Z,99956.34
2023-01-27T21:21:27.340Z,99956.94
2023-01-27T21:23:56.409Z,99959.03
2023-01-27T21:26:25.689Z,99943.88
2023-01-27T21:28:53.561Z,99943.56
2023-01-27T21:31:22.368Z,99938.94
2023-01-27T21:33:51.161Z,99951.69
2023-01-27T21:36:19.089Z,99948.41
2023-01-27T21:38:47.489Z,99957.22
2023-01-27T21:41:44.930Z,99960.12
2023-01-27T21:44:51.288Z,99945.22
2023-01-27T21:47:20.188Z,99941.41
2023-01-27T21:50:04.147Z,99946.09
2023-01-27T21:52:33.631Z,99952.19
2023-01-27T21:55:05.537Z,99945.97
2023-01-27T21:57:34.496Z,99952.25
2023-01-27T22:00:02.326Z,99959.88
2023-01-27T22:03:03.011Z,99956.91
2023-01-27T22:05:32.500Z,99959.09
2023-01-27T22:08:01.991Z,99953.09
2023-01-27T22:10:30.371Z,99951.88
2023-01-27T22:12:59.834Z,99949.44
2023-01-27T22:15:28.933Z,99952.16
2023-01-27T22:17:57.600Z,99956.00
2023-01-27T22:20:25.940Z,99954.75
2023-01-27T22:22:53.710Z,99943.78
2023-01-27T22:25:21.676Z,99948.63
2023-01-27T22:27:49.378Z,99956.50
2023-01-27T22:30:19.812Z,99943.22
2023-01-27T22:32:47.600Z,99951.47
2023-01-27T22:35:17.757Z,99952.66
2023-01-27T22:37:46.005Z,99947.22
2023-01-27T22:40:13.900Z,99949.13
2023-01-27T22:42:41.545Z,99949.13
2023-01-27T22:45:10.017Z,99948.72
2023-01-27T22:47:37.458Z,99943.47
2023-01-27T22:50:05.470Z,99940.37
2023-01-27T22:52:36.280Z,99940.97
2023-01-27T22:55:05.238Z,99937.81
2023-01-27T22:57:33.195Z,99938.31
2023-01-27T23:00:00.637Z,99931.63
2023-01-27T23:02:29.923Z,99946.31
2023-01-27T23:04:58.455Z,99934.78
2023-01-27T23:07:26.283Z,99938.31
2023-01-27T23:09:53.718Z,99950.50
2023-01-27T23:12:21.424Z,99949.28
2023-01-27T23:14:48.846Z,99945.50
2023-01-27T23:17:16.268Z,99941.69
2023-01-27T23:19:44.018Z,99941.72
2023-01-27T23:22:11.784Z,99941.88
2023-01-27T23:24:39.660Z,99941.59
2023-01-27T23:27:07.330Z,99942.59
2023-01-27T23:29:34.749Z,99941.81
2023-01-27T23:32:02.236Z,99935.53
2023-01-27T23:34:30.983Z,99958.66
2023-01-27T23:36:58.433Z,99961.81
2023-01-27T23:39:25.843Z,99936.06
2023-01-27T23:41:53.549Z,99938.22
2023-01-27T23:44:21.029Z,99938.84
2023-01-27T23:46:48.446Z,99950.78
2023-01-27T23:49:16.168Z,99950.50
2023-01-27T23:51:43.571Z,99938.28
2023-01-27T23:54:11.114Z,99957.31
2023-01-27T23:56:38.813Z,99953.31
2023-01-27T23:59:06.273Z,99949.56
